Gentle Leader — C6WY9 — position and weather

sailwx.info

Track history (hours):
 
Tides and Currents Weather Stations Pressure Air Temp Water Temp Dewpoint Dewpoint Depression Visibility Wind Speed Wind Dir Waves Ship Positions

Gentle Leader

Last reported at 2014-Oct-19 21:21 UTC. Time now 2014-Oct-22 06:25 UTC.
Position N 36°34' E 026°47'.

Length 200 m; draft 9.5 m.

Type: Cargo ship. MMSI: 311003300.

Date/timePositionNaut miles runAvg speedWind from/ knotsBaromVisibWave heightAir tempDewpointWater temp
2014-Oct-19 21:21N 36°34' E 026°47'1317.0
2014-Oct-19 20:33N 36°47' E 026°44'2316.8
2014-Oct-19 19:10N 37°07' E 026°29'1016.3
2014-Oct-19 18:33N 37°13' E 026°19'1615.5
2014-Oct-19 17:33N 37°20' E 026°02'1414.4
2014-Oct-19 16:33N 37°31' E 025°50'22611.3
2014-Oct-18 20:33N 40°34' E 028°40'1813.4
2014-Oct-18 19:15N 40°26' E 028°60'4 1.0
2014-Oct-18 15:24N 40°25' E 029°05'0 0.0
2014-Oct-18 14:24N 40°25' E 029°05'143 4.2
2014-Oct-17 04:15N 39°59' E 026°01'911.0
2014-Oct-17 03:28N 39°52' E 025°53'910.3
2014-Oct-17 02:33N 39°44' E 025°47'5711.2
2014-Oct-16 21:32N 38°53' E 025°15'2613.3
2014-Oct-16 19:32N 38°29' E 025°02'1413.3
2014-Oct-16 18:31N 38°18' E 024°51'2613.4
2014-Oct-16 16:33N 37°54' E 024°37'1515.0
2014-Oct-16 15:33N 37°41' E 024°30'1614.2
2014-Oct-16 14:24N 37°28' E 024°17'1315.6
2014-Oct-16 13:33N 37°22' E 024°03'1616.1
2014-Oct-16 12:33N 37°09' E 023°50'1615.6
2014-Oct-16 11:33N 36°56' E 023°40'1615.8
2014-Oct-16 10:33N 36°42' E 023°30'1615.9
2014-Oct-16 09:33N 36°28' E 023°20'1413.8
2014-Oct-16 08:33N 36°24' E 023°03'2316.2
2014-Oct-16 07:07N 36°21' E 022°35'32815.9
2014-Oct-15 10:33N 37°49' E 015°59'2911.8
2014-Oct-15 08:07N 38°10' E 015°35'9 9.3
2014-Oct-15 07:10N 38°18' E 015°40'5 8.4
2014-Oct-15 06:34N 38°23' E 015°36'10414.9
2014-Oct-14 23:33N 39°37' E 014°02'1616.0
2014-Oct-14 22:33N 39°49' E 013°48'1615.8
2014-Oct-14 21:33N 39°60' E 013°33'19216.0
2014-Oct-14 09:33N 42°18' E 010°35'1817.1
2014-Oct-14 08:31N 42°31' E 010°19'3417.1
2014-Oct-14 06:33N 42°54' E 009°46'1717.1
2014-Oct-14 05:33N 43°08' E 009°33'1717.3
2014-Oct-14 04:33N 43°23' E 009°21'1717.4
2014-Oct-14 03:33N 43°37' E 009°08'1717.2
2014-Oct-14 02:33N 43°52' E 008°55'1717.3
2014-Oct-14 01:33N 44°07' E 008°43'1514.9
2014-Oct-14 00:33N 44°19' E 008°31'1 0.7
2014-Oct-13 23:33N 44°19' E 008°30'0 0.0
2014-Oct-13 22:33N 44°19' E 008°30'0 0.0
2014-Oct-13 21:24N 44°19' E 008°30'0 0.0
2014-Oct-13 20:30N 44°19' E 008°30'0 0.0
2014-Oct-13 19:33N 44°19' E 008°30'0 0.0
2014-Oct-13 18:27N 44°19' E 008°30'0 0.0
2014-Oct-13 17:33N 44°19' E 008°30'0 0.0
2014-Oct-13 16:27N 44°19' E 008°30'0 0.0
2014-Oct-13 15:33N 44°19' E 008°30'0 0.0
2014-Oct-13 13:33N 44°19' E 008°30'0 0.0
2014-Oct-13 12:21N 44°19' E 008°30'0 0.0
2014-Oct-13 11:33N 44°19' E 008°30'0 0.0
2014-Oct-13 10:33N 44°19' E 008°30'0 0.0
2014-Oct-13 09:33N 44°19' E 008°30'0 0.0
2014-Oct-13 08:33N 44°19' E 008°30'0 0.0
2014-Oct-13 07:33N 44°19' E 008°30'0 0.0
2014-Oct-13 06:33N 44°19' E 008°30'0 0.0
2014-Oct-13 05:27N 44°19' E 008°30'0 0.0
2014-Oct-13 04:33N 44°19' E 008°30'0 0.5
2014-Oct-13 03:33N 44°19' E 008°30'4 3.6
2014-Oct-13 02:33N 44°16' E 008°33'9 8.5
2014-Oct-13 01:33N 44°08' E 008°33'54 8.9
2014-Oct-12 19:31N 43°29' E 007°41'1410.5
2014-Oct-12 18:09N 43°19' E 007°26'610.0
2014-Oct-12 17:33N 43°16' E 007°20'1110.2
2014-Oct-12 16:30N 43°09' E 007°08'1010.3
2014-Oct-12 15:33N 43°03' E 006°58'1010.0
2014-Oct-12 14:33N 42°56' E 006°47'1010.0
2014-Oct-12 13:33N 42°50' E 006°37'20 9.8
2014-Oct-12 11:33N 42°41' E 006°13'10 9.8
2014-Oct-12 10:33N 42°37' E 006°01'1110.4
2014-Oct-12 09:32N 42°32' E 005°48'1212.0
2014-Oct-12 08:33N 42°27' E 005°33'1211.8
2014-Oct-12 07:33N 42°23' E 005°19'1211.6
2014-Oct-12 06:32N 42°17' E 005°04'1211.9
2014-Oct-12 05:33N 42°12' E 004°50'6111.8
2014-Oct-12 00:23N 41°46' E 003°36'910.9
2014-Oct-11 23:32N 41°42' E 003°25'1111.2
2014-Oct-11 22:31N 41°37' E 003°11'1111.1
2014-Oct-11 21:33N 41°32' E 002°59'1211.6
2014-Oct-11 20:33N 41°27' E 002°44'1111.2
2014-Oct-11 19:33N 41°23' E 002°31'1111.0
2014-Oct-11 18:32N 41°18' E 002°17'6 0.5
2014-Oct-11 05:15N 41°20' E 002°09'1 1.4
2014-Oct-11 04:33N 41°20' E 002°10'4 3.7
2014-Oct-11 03:33N 41°17' E 002°11'3 3.0
2014-Oct-11 02:33N 41°14' E 002°09'2 2.0
2014-Oct-11 01:24N 41°12' E 002°11'0 0.3
2014-Oct-11 00:33N 41°12' E 002°11'0 0.4
2014-Oct-10 23:33N 41°12' E 002°10'0 0.3
2014-Oct-10 22:33N 41°12' E 002°10'0 0.5
2014-Oct-10 21:33N 41°12' E 002°09'3 3.3
2014-Oct-10 20:33N 41°11' E 002°05'0 0.4
2014-Oct-10 19:33N 41°11' E 002°06'0 0.4
2014-Oct-10 18:33N 41°11' E 002°06'1 0.6
2014-Oct-10 17:33N 41°11' E 002°07'1 0.6
2014-Oct-10 16:33N 41°11' E 002°08'1 0.7
2014-Oct-10 15:27N 41°11' E 002°09'2 2.0
2014-Oct-10 14:33N 41°13' E 002°08'1 0.7
2014-Oct-10 13:33N 41°13' E 002°09'1 0.3
2014-Oct-10 11:25N 41°13' E 002°08'0 0.5
2014-Oct-10 10:32N 41°13' E 002°08'6 6.5
2014-Oct-10 09:33N 41°07' E 002°05'1110.9
2014-Oct-10 08:33N 40°57' E 001°59'1212.1
2014-Oct-10 07:33N 40°46' E 001°52'1211.9
2014-Oct-10 06:33N 40°35' E 001°46'1110.7
2014-Oct-10 05:33N 40°25' E 001°40'1010.4
2014-Oct-10 04:33N 40°16' E 001°35'1010.3
2014-Oct-10 03:33N 40°06' E 001°30'1010.3
2014-Oct-10 02:33N 39°57' E 001°24'1110.9
2014-Oct-10 01:33N 39°47' E 001°18'3511.4
2014-Oct-09 22:30N 39°16' E 000°58'1514.5
2014-Oct-09 21:28N 39°03' E 000°49'  
Track history (hours):
 
Tides and Currents Weather Stations Pressure Air Temp Water Temp Dewpoint Dewpoint Depression Visibility Wind Speed Wind Dir Waves Ship Positions

Gentle Leader

Last reported at 2014-Oct-19 21:21 UTC. Time now 2014-Oct-22 06:25 UTC.
Position N 36°34' E 026°47'.

Length 200 m; draft 9.5 m.

Type: Cargo ship. MMSI: 311003300.

Date/timePositionNaut miles runAvg speedWind from/ knotsBaromVisibWave heightAir tempDewpointWater temp
2014-Oct-19 21:21N 36°34' E 026°47'1317.0
2014-Oct-19 20:33N 36°47' E 026°44'2316.8
2014-Oct-19 19:10N 37°07' E 026°29'1016.3
2014-Oct-19 18:33N 37°13' E 026°19'1615.5
2014-Oct-19 17:33N 37°20' E 026°02'1414.4
2014-Oct-19 16:33N 37°31' E 025°50'22611.3
2014-Oct-18 20:33N 40°34' E 028°40'1813.4
2014-Oct-18 19:15N 40°26' E 028°60'4 1.0
2014-Oct-18 15:24N 40°25' E 029°05'0 0.0
2014-Oct-18 14:24N 40°25' E 029°05'143 4.2
2014-Oct-17 04:15N 39°59' E 026°01'911.0
2014-Oct-17 03:28N 39°52' E 025°53'910.3
2014-Oct-17 02:33N 39°44' E 025°47'5711.2
2014-Oct-16 21:32N 38°53' E 025°15'2613.3
2014-Oct-16 19:32N 38°29' E 025°02'1413.3
2014-Oct-16 18:31N 38°18' E 024°51'2613.4
2014-Oct-16 16:33N 37°54' E 024°37'1515.0
2014-Oct-16 15:33N 37°41' E 024°30'1614.2
2014-Oct-16 14:24N 37°28' E 024°17'1315.6
2014-Oct-16 13:33N 37°22' E 024°03'1616.1
2014-Oct-16 12:33N 37°09' E 023°50'1615.6
2014-Oct-16 11:33N 36°56' E 023°40'1615.8
2014-Oct-16 10:33N 36°42' E 023°30'1615.9
2014-Oct-16 09:33N 36°28' E 023°20'1413.8
2014-Oct-16 08:33N 36°24' E 023°03'2316.2
2014-Oct-16 07:07N 36°21' E 022°35'32815.9
2014-Oct-15 10:33N 37°49' E 015°59'2911.8
2014-Oct-15 08:07N 38°10' E 015°35'9 9.3
2014-Oct-15 07:10N 38°18' E 015°40'5 8.4
2014-Oct-15 06:34N 38°23' E 015°36'10414.9
2014-Oct-14 23:33N 39°37' E 014°02'1616.0
2014-Oct-14 22:33N 39°49' E 013°48'1615.8
2014-Oct-14 21:33N 39°60' E 013°33'19216.0
2014-Oct-14 09:33N 42°18' E 010°35'1817.1
2014-Oct-14 08:31N 42°31' E 010°19'3417.1
2014-Oct-14 06:33N 42°54' E 009°46'1717.1
2014-Oct-14 05:33N 43°08' E 009°33'1717.3
2014-Oct-14 04:33N 43°23' E 009°21'1717.4
2014-Oct-14 03:33N 43°37' E 009°08'1717.2
2014-Oct-14 02:33N 43°52' E 008°55'1717.3
2014-Oct-14 01:33N 44°07' E 008°43'1514.9
2014-Oct-14 00:33N 44°19' E 008°31'1 0.7
2014-Oct-13 23:33N 44°19' E 008°30'0 0.0
2014-Oct-13 22:33N 44°19' E 008°30'0 0.0
2014-Oct-13 21:24N 44°19' E 008°30'0 0.0
2014-Oct-13 20:30N 44°19' E 008°30'0 0.0
2014-Oct-13 19:33N 44°19' E 008°30'0 0.0
2014-Oct-13 18:27N 44°19' E 008°30'0 0.0
2014-Oct-13 17:33N 44°19' E 008°30'0 0.0
2014-Oct-13 16:27N 44°19' E 008°30'0 0.0
2014-Oct-13 15:33N 44°19' E 008°30'0 0.0
2014-Oct-13 13:33N 44°19' E 008°30'0 0.0
2014-Oct-13 12:21N 44°19' E 008°30'0 0.0
2014-Oct-13 11:33N 44°19' E 008°30'0 0.0
2014-Oct-13 10:33N 44°19' E 008°30'0 0.0
2014-Oct-13 09:33N 44°19' E 008°30'0 0.0
2014-Oct-13 08:33N 44°19' E 008°30'0 0.0
2014-Oct-13 07:33N 44°19' E 008°30'0 0.0
2014-Oct-13 06:33N 44°19' E 008°30'0 0.0
2014-Oct-13 05:27N 44°19' E 008°30'0 0.0
2014-Oct-13 04:33N 44°19' E 008°30'0 0.5
2014-Oct-13 03:33N 44°19' E 008°30'4 3.6
2014-Oct-13 02:33N 44°16' E 008°33'9 8.5
2014-Oct-13 01:33N 44°08' E 008°33'54 8.9
2014-Oct-12 19:31N 43°29' E 007°41'1410.5
2014-Oct-12 18:09N 43°19' E 007°26'610.0
2014-Oct-12 17:33N 43°16' E 007°20'1110.2
2014-Oct-12 16:30N 43°09' E 007°08'1010.3
2014-Oct-12 15:33N 43°03' E 006°58'1010.0
2014-Oct-12 14:33N 42°56' E 006°47'1010.0
2014-Oct-12 13:33N 42°50' E 006°37'20 9.8
2014-Oct-12 11:33N 42°41' E 006°13'10 9.8
2014-Oct-12 10:33N 42°37' E 006°01'1110.4
2014-Oct-12 09:32N 42°32' E 005°48'1212.0
2014-Oct-12 08:33N 42°27' E 005°33'1211.8
2014-Oct-12 07:33N 42°23' E 005°19'1211.6
2014-Oct-12 06:32N 42°17' E 005°04'1211.9
2014-Oct-12 05:33N 42°12' E 004°50'6111.8
2014-Oct-12 00:23N 41°46' E 003°36'910.9
2014-Oct-11 23:32N 41°42' E 003°25'1111.2
2014-Oct-11 22:31N 41°37' E 003°11'1111.1
2014-Oct-11 21:33N 41°32' E 002°59'1211.6
2014-Oct-11 20:33N 41°27' E 002°44'1111.2
2014-Oct-11 19:33N 41°23' E 002°31'1111.0
2014-Oct-11 18:32N 41°18' E 002°17'6 0.5
2014-Oct-11 05:15N 41°20' E 002°09'1 1.4
2014-Oct-11 04:33N 41°20' E 002°10'4 3.7
2014-Oct-11 03:33N 41°17' E 002°11'3 3.0
2014-Oct-11 02:33N 41°14' E 002°09'2 2.0
2014-Oct-11 01:24N 41°12' E 002°11'0 0.3
2014-Oct-11 00:33N 41°12' E 002°11'0 0.4
2014-Oct-10 23:33N 41°12' E 002°10'0 0.3
2014-Oct-10 22:33N 41°12' E 002°10'0 0.5
2014-Oct-10 21:33N 41°12' E 002°09'3 3.3
2014-Oct-10 20:33N 41°11' E 002°05'0 0.4
2014-Oct-10 19:33N 41°11' E 002°06'0 0.4
2014-Oct-10 18:33N 41°11' E 002°06'1 0.6
2014-Oct-10 17:33N 41°11' E 002°07'1 0.6
2014-Oct-10 16:33N 41°11' E 002°08'1 0.7
2014-Oct-10 15:27N 41°11' E 002°09'2 2.0
2014-Oct-10 14:33N 41°13' E 002°08'1 0.7
2014-Oct-10 13:33N 41°13' E 002°09'1 0.3
2014-Oct-10 11:25N 41°13' E 002°08'0 0.5
2014-Oct-10 10:32N 41°13' E 002°08'6 6.5
2014-Oct-10 09:33N 41°07' E 002°05'1110.9
2014-Oct-10 08:33N 40°57' E 001°59'1212.1
2014-Oct-10 07:33N 40°46' E 001°52'1211.9
2014-Oct-10 06:33N 40°35' E 001°46'1110.7
2014-Oct-10 05:33N 40°25' E 001°40'1010.4
2014-Oct-10 04:33N 40°16' E 001°35'1010.3
2014-Oct-10 03:33N 40°06' E 001°30'1010.3
2014-Oct-10 02:33N 39°57' E 001°24'1110.9
2014-Oct-10 01:33N 39°47' E 001°18'3511.4
2014-Oct-09 22:30N 39°16' E 000°58'1514.5
2014-Oct-09 21:28N 39°03' E 000°49'  

Dump ship's entire track history